sensor_id;sensor_type;location;lat;lon;timestamp;pressure;altitude;pressure_sealevel;temperature;humidity
23223;BME280;11780;13.904;100.620;2023-03-04T00:00:38;101730.75;;;29.12;55.02
23223;BME280;11780;13.904;100.620;2023-03-04T00:03:14;101726.63;;;29.04;55.18
23223;BME280;11780;13.904;100.620;2023-03-04T00:05:44;101728.63;;;28.98;54.69
23223;BME280;11780;13.904;100.620;2023-03-04T00:08:15;101742.38;;;28.98;54.53
23223;BME280;11780;13.904;100.620;2023-03-04T00:10:45;101744.34;;;28.93;54.17
23223;BME280;11780;13.904;100.620;2023-03-04T00:13:15;101751.28;;;28.90;54.07
23223;BME280;11780;13.904;100.620;2023-03-04T00:15:47;101757.63;;;28.85;53.83
23223;BME280;11780;13.904;100.620;2023-03-04T00:18:35;101753.25;;;28.84;53.44
23223;BME280;11780;13.904;100.620;2023-03-04T00:21:28;101762.34;;;28.80;53.39
23223;BME280;11780;13.904;100.620;2023-03-04T00:23:58;101764.28;;;28.79;53.00
23223;BME280;11780;13.904;100.620;2023-03-04T00:26:28;101766.50;;;28.77;52.58
23223;BME280;11780;13.904;100.620;2023-03-04T00:28:58;101767.56;;;28.81;52.26
23223;BME280;11780;13.904;100.620;2023-03-04T00:31:28;101765.94;;;28.75;52.03
23223;BME280;11780;13.904;100.620;2023-03-04T00:34:16;101775.84;;;28.76;51.95
23223;BME280;11780;13.904;100.620;2023-03-04T00:36:46;101780.56;;;28.76;51.89
23223;BME280;11780;13.904;100.620;2023-03-04T00:39:16;101786.59;;;28.78;52.06
23223;BME280;11780;13.904;100.620;2023-03-04T00:41:46;101793.22;;;28.66;51.75
23223;BME280;11780;13.904;100.620;2023-03-04T00:44:35;101793.25;;;28.61;51.47
23223;BME280;11780;13.904;100.620;2023-03-04T00:47:05;101805.06;;;28.67;51.79
23223;BME280;11780;13.904;100.620;2023-03-04T00:49:52;101813.84;;;28.74;51.82
23223;BME280;11780;13.904;100.620;2023-03-04T00:52:23;101809.72;;;28.71;51.68
23223;BME280;11780;13.904;100.620;2023-03-04T00:54:53;101821.84;;;28.76;51.68
23223;BME280;11780;13.904;100.620;2023-03-04T00:57:23;101822.69;;;28.61;51.17
23223;BME280;11780;13.904;100.620;2023-03-04T00:59:53;101818.34;;;28.49;51.24
23223;BME280;11780;13.904;100.620;2023-03-04T01:02:23;101829.31;;;28.60;51.29
23223;BME280;11780;13.904;100.620;2023-03-04T01:04:53;101832.06;;;28.65;51.40
23223;BME280;11780;13.904;100.620;2023-03-04T01:07:23;101834.78;;;28.70;51.31
23223;BME280;11780;13.904;100.620;2023-03-04T01:09:53;101835.34;;;28.72;51.13
23223;BME280;11780;13.904;100.620;2023-03-04T01:12:23;101837.88;;;28.58;50.97
23223;BME280;11780;13.904;100.620;2023-03-04T01:14:54;101843.72;;;28.41;50.99
23223;BME280;11780;13.904;100.620;2023-03-04T01:17:25;101845.63;;;28.46;51.07
23223;BME280;11780;13.904;100.620;2023-03-04T01:19:55;101857.72;;;28.45;51.09
23223;BME280;11780;13.904;100.620;2023-03-04T01:22:26;101857.69;;;28.50;50.82
23223;BME280;11780;13.904;100.620;2023-03-04T01:24:57;101862.94;;;28.51;50.64
23223;BME280;11780;13.904;100.620;2023-03-04T01:27:39;101860.19;;;28.51;50.76
23223;BME280;11780;13.904;100.620;2023-03-04T01:30:27;101869.50;;;28.61;50.94
23223;BME280;11780;13.904;100.620;2023-03-04T01:32:58;101874.22;;;28.50;50.75
23223;BME280;11780;13.904;100.620;2023-03-04T01:35:29;101880.56;;;28.50;50.78
23223;BME280;11780;13.904;100.620;2023-03-04T01:37:59;101883.09;;;28.21;50.22
23223;BME280;11780;13.904;100.620;2023-03-04T01:40:44;101890.53;;;28.25;50.65
23223;BME280;11780;13.904;100.620;2023-03-04T01:43:26;101906.47;;;28.39;50.28
23223;BME280;11780;13.904;100.620;2023-03-04T01:45:57;101898.75;;;28.36;50.00
23223;BME280;11780;13.904;100.620;2023-03-04T01:48:30;101903.72;;;28.29;49.90
23223;BME280;11780;13.904;100.620;2023-03-04T01:51:11;101896.56;;;28.38;49.95
23223;BME280;11780;13.904;100.620;2023-03-04T01:53:44;101906.44;;;28.49;49.88
23223;BME280;11780;13.904;100.620;2023-03-04T01:56:27;101906.47;;;28.34;49.91
23223;BME280;11780;13.904;100.620;2023-03-04T01:59:17;101914.16;;;28.26;50.36
23223;BME280;11780;13.904;100.620;2023-03-04T02:02:00;101921.03;;;28.45;50.35
23223;BME280;11780;13.904;100.620;2023-03-04T02:04:32;101920.75;;;28.46;50.34
23223;BME280;11780;13.904;100.620;2023-03-04T02:07:04;101923.22;;;28.53;50.25
23223;BME280;11780;13.904;100.620;2023-03-04T02:09:36;101924.88;;;28.49;50.40
23223;BME280;11780;13.904;100.620;2023-03-04T02:12:06;101927.00;;;28.72;50.49
23223;BME280;11780;13.904;100.620;2023-03-04T02:14:38;101931.72;;;28.72;50.46
23223;BME280;11780;13.904;100.620;2023-03-04T02:17:11;101934.47;;;28.77;50.36
23223;BME280;11780;13.904;100.620;2023-03-04T02:20:02;101937.78;;;28.69;50.07
23223;BME280;11780;13.904;100.620;2023-03-04T02:22:39;101941.34;;;28.69;50.10
23223;BME280;11780;13.904;100.620;2023-03-04T02:25:17;101945.47;;;28.67;49.57
23223;BME280;11780;13.904;100.620;2023-03-04T02:27:50;101947.94;;;28.68;49.55
23223;BME280;11780;13.904;100.620;2023-03-04T02:30:22;101950.16;;;28.77;49.56
23223;BME280;11780;13.904;100.620;2023-03-04T02:32:54;101953.19;;;28.80;49.31
23223;BME280;11780;13.904;100.620;2023-03-04T02:35:24;101948.78;;;28.84;49.44
23223;BME280;11780;13.904;100.620;2023-03-04T02:38:13;101954.25;;;28.90;49.43
23223;BME280;11780;13.904;100.620;2023-03-04T02:40:47;101959.19;;;28.93;49.27
23223;BME280;11780;13.904;100.620;2023-03-04T02:43:19;101952.88;;;28.92;49.11
23223;BME280;11780;13.904;100.620;2023-03-04T02:45:50;101956.69;;;28.96;48.86
23223;BME280;11780;13.904;100.620;2023-03-04T02:48:39;101953.69;;;28.98;49.13
23223;BME280;11780;13.904;100.620;2023-03-04T02:51:10;101958.59;;;29.06;48.95
23223;BME280;11780;13.904;100.620;2023-03-04T02:53:40;101970.13;;;29.13;48.55
23223;BME280;11780;13.904;100.620;2023-03-04T02:56:30;101963.78;;;29.13;48.44
23223;BME280;11780;13.904;100.620;2023-03-04T02:59:00;101953.31;;;29.20;48.08
23223;BME280;11780;13.904;100.620;2023-03-04T03:01:31;101959.34;;;29.27;48.27
23223;BME280;11780;13.904;100.620;2023-03-04T03:04:01;101949.13;;;29.28;47.87
23223;BME280;11780;13.904;100.620;2023-03-04T03:06:33;101956.53;;;29.32;48.19
23223;BME280;11780;13.904;100.620;2023-03-04T03:09:03;101951.28;;;29.41;48.17
23223;BME280;11780;13.904;100.620;2023-03-04T03:11:34;101957.00;;;29.55;48.43
23223;BME280;11780;13.904;100.620;2023-03-04T03:14:05;101955.13;;;29.51;47.53
23223;BME280;11780;13.904;100.620;2023-03-04T03:16:51;101951.28;;;29.46;46.94
23223;BME280;11780;13.904;100.620;2023-03-04T03:19:21;101959.50;;;29.52;47.14
23223;BME280;11780;13.904;100.620;2023-03-04T03:21:53;101960.56;;;29.56;46.56
23223;BME280;11780;13.904;100.620;2023-03-04T03:24:26;101948.34;;;29.67;46.59
23223;BME280;11780;13.904;100.620;2023-03-04T03:26:56;101951.13;;;29.67;46.79
23223;BME280;11780;13.904;100.620;2023-03-04T03:29:26;101953.38;;;29.65;46.50
23223;BME280;11780;13.904;100.620;2023-03-04T03:31:56;101949.75;;;29.70;46.89
23223;BME280;11780;13.904;100.620;2023-03-04T03:34:27;101946.94;;;29.75;46.72
23223;BME280;11780;13.904;100.620;2023-03-04T03:36:58;101949.09;;;29.83;46.62
23223;BME280;11780;13.904;100.620;2023-03-04T03:39:28;101938.34;;;29.82;46.64
23223;BME280;11780;13.904;100.620;2023-03-04T03:41:58;101936.16;;;29.78;46.50
23223;BME280;11780;13.904;100.620;2023-03-04T03:44:29;101938.59;;;29.85;46.05
23223;BME280;11780;13.904;100.620;2023-03-04T03:46:59;101937.75;;;29.85;46.46
23223;BME280;11780;13.904;100.620;2023-03-04T03:49:29;101946.31;;;29.88;46.15
23223;BME280;11780;13.904;100.620;2023-03-04T03:51:59;101930.53;;;29.94;46.49
23223;BME280;11780;13.904;100.620;2023-03-04T03:54:29;101930.78;;;29.92;45.87
23223;BME280;11780;13.904;100.620;2023-03-04T03:56:59;101937.16;;;29.93;45.94
23223;BME280;11780;13.904;100.620;2023-03-04T03:59:29;101926.69;;;29.90;45.47
23223;BME280;11780;13.904;100.620;2023-03-04T04:01:59;101920.59;;;29.93;45.81
23223;BME280;11780;13.904;100.620;2023-03-04T04:04:30;101918.09;;;29.97;46.02
23223;BME280;11780;13.904;100.620;2023-03-04T04:07:00;101908.41;;;29.99;45.96
23223;BME280;11780;13.904;100.620;2023-03-04T04:09:31;101909.50;;;30.03;45.82
23223;BME280;11780;13.904;100.620;2023-03-04T04:12:04;101899.00;;;30.05;45.83
23223;BME280;11780;13.904;100.620;2023-03-04T04:14:35;101901.44;;;30.07;45.81
23223;BME280;11780;13.904;100.620;2023-03-04T04:17:08;101898.34;;;30.14;46.10
23223;BME280;11780;13.904;100.620;2023-03-04T04:19:42;101880.75;;;30.10;45.66
23223;BME280;11780;13.904;100.620;2023-03-04T04:22:14;101876.28;;;30.14;45.82
23223;BME280;11780;13.904;100.620;2023-03-04T04:24:47;101871.03;;;30.17;46.20
23223;BME280;11780;13.904;100.620;2023-03-04T04:27:17;101871.56;;;30.19;46.40
23223;BME280;11780;13.904;100.620;2023-03-04T04:30:06;101864.63;;;30.22;45.89
23223;BME280;11780;13.904;100.620;2023-03-04T04:32:36;101853.88;;;30.20;45.48
23223;BME280;11780;13.904;100.620;2023-03-04T04:35:07;101843.13;;;30.19;45.77
23223;BME280;11780;13.904;100.620;2023-03-04T04:37:37;101845.28;;;30.22;45.29
23223;BME280;11780;13.904;100.620;2023-03-04T04:40:12;101839.47;;;30.23;44.76
23223;BME280;11780;13.904;100.620;2023-03-04T04:42:42;101830.63;;;30.27;44.74
23223;BME280;11780;13.904;100.620;2023-03-04T04:45:13;101828.03;;;30.35;45.28
23223;BME280;11780;13.904;100.620;2023-03-04T04:47:43;101821.88;;;30.44;44.61
23223;BME280;11780;13.904;100.620;2023-03-04T04:50:13;101812.75;;;30.43;44.66
23223;BME280;11780;13.904;100.620;2023-03-04T04:52:44;101812.16;;;30.46;44.80
23223;BME280;11780;13.904;100.620;2023-03-04T04:55:15;101799.16;;;30.47;44.56
23223;BME280;11780;13.904;100.620;2023-03-04T04:57:46;101792.72;;;30.57;43.74
23223;BME280;11780;13.904;100.620;2023-03-04T06:39:31;101568.94;;;30.81;43.45
23223;BME280;11780;13.904;100.620;2023-03-04T06:42:02;101569.06;;;30.90;43.87
23223;BME280;11780;13.904;100.620;2023-03-04T06:44:32;101571.75;;;30.95;43.60
23223;BME280;11780;13.904;100.620;2023-03-04T06:47:02;101560.81;;;31.04;43.92
23223;BME280;11780;13.904;100.620;2023-03-04T06:49:34;101555.69;;;31.11;43.20
23223;BME280;11780;13.904;100.620;2023-03-04T06:52:04;101557.78;;;31.19;42.83
23223;BME280;11780;13.904;100.620;2023-03-04T06:54:34;101545.78;;;31.24;42.84
23223;BME280;11780;13.904;100.620;2023-03-04T06:57:05;101544.88;;;31.28;42.54
23223;BME280;11780;13.904;100.620;2023-03-04T06:59:35;101530.25;;;31.28;42.68
23223;BME280;11780;13.904;100.620;2023-03-04T07:02:06;101523.59;;;31.29;43.11
23223;BME280;11780;13.904;100.620;2023-03-04T07:04:39;101522.75;;;31.28;42.84
23223;BME280;11780;13.904;100.620;2023-03-04T07:07:10;101518.34;;;31.27;42.66
23223;BME280;11780;13.904;100.620;2023-03-04T07:09:42;101517.75;;;31.31;42.86
23223;BME280;11780;13.904;100.620;2023-03-04T07:12:11;101502.47;;;31.33;42.06
23223;BME280;11780;13.904;100.620;2023-03-04T07:14:42;101506.38;;;31.32;42.20
23223;BME280;11780;13.904;100.620;2023-03-04T07:17:12;101500.84;;;31.32;42.38
23223;BME280;11780;13.904;100.620;2023-03-04T07:19:43;101489.06;;;31.26;42.69
23223;BME280;11780;13.904;100.620;2023-03-04T07:22:14;101478.16;;;31.21;42.46
23223;BME280;11780;13.904;100.620;2023-03-04T07:24:44;101476.38;;;31.25;42.45
23223;BME280;11780;13.904;100.620;2023-03-04T07:27:14;101471.25;;;31.33;42.62
23223;BME280;11780;13.904;100.620;2023-03-04T07:29:44;101472.56;;;31.35;42.64
23223;BME280;11780;13.904;100.620;2023-03-04T07:32:15;101461.84;;;31.34;42.10
23223;BME280;11780;13.904;100.620;2023-03-04T07:34:46;101455.19;;;31.35;41.61
23223;BME280;11780;13.904;100.620;2023-03-04T07:37:16;101460.06;;;31.38;41.55
23223;BME280;11780;13.904;100.620;2023-03-04T07:39:46;101459.78;;;31.39;41.70
23223;BME280;11780;13.904;100.620;2023-03-04T07:42:16;101446.19;;;31.29;41.52
23223;BME280;11780;13.904;100.620;2023-03-04T07:45:08;101439.13;;;31.23;41.87
23223;BME280;11780;13.904;100.620;2023-03-04T07:47:38;101439.63;;;31.25;41.50
23223;BME280;11780;13.904;100.620;2023-03-04T07:50:10;101436.56;;;31.26;41.71
23223;BME280;11780;13.904;100.620;2023-03-04T07:52:46;101434.19;;;31.34;42.08
23223;BME280;11780;13.904;100.620;2023-03-04T07:55:17;101426.72;;;31.34;41.79
23223;BME280;11780;13.904;100.620;2023-03-04T07:57:47;101424.44;;;31.50;42.67
23223;BME280;11780;13.904;100.620;2023-03-04T08:00:18;101430.50;;;31.61;42.45
23223;BME280;11780;13.904;100.620;2023-03-04T08:02:48;101423.84;;;31.62;41.65
23223;BME280;11780;13.904;100.620;2023-03-04T08:05:19;101422.38;;;31.56;41.44
23223;BME280;11780;13.904;100.620;2023-03-04T08:07:49;101415.00;;;31.51;41.73
23223;BME280;11780;13.904;100.620;2023-03-04T08:10:19;101409.34;;;31.56;41.43
23223;BME280;11780;13.904;100.620;2023-03-04T08:12:49;101410.78;;;31.54;41.18
23223;BME280;11780;13.904;100.620;2023-03-04T08:15:19;101404.25;;;31.50;41.95
23223;BME280;11780;13.904;100.620;2023-03-04T08:17:50;101397.91;;;31.49;41.42
23223;BME280;11780;13.904;100.620;2023-03-04T08:20:21;101393.69;;;31.52;41.98
23223;BME280;11780;13.904;100.620;2023-03-04T08:23:06;101392.25;;;31.54;42.07
23223;BME280;11780;13.904;100.620;2023-03-04T08:25:41;101388.47;;;31.50;42.04
23223;BME280;11780;13.904;100.620;2023-03-04T08:28:11;101378.75;;;31.53;41.61
23223;BME280;11780;13.904;100.620;2023-03-04T08:30:42;101377.59;;;31.54;41.90
23223;BME280;11780;13.904;100.620;2023-03-04T08:33:12;101375.84;;;31.58;42.00
23223;BME280;11780;13.904;100.620;2023-03-04T08:35:42;101373.28;;;31.62;42.02
23223;BME280;11780;13.904;100.620;2023-03-04T08:38:12;101380.75;;;31.61;42.44
23223;BME280;11780;13.904;100.620;2023-03-04T08:40:42;101371.63;;;31.61;42.93
23223;BME280;11780;13.904;100.620;2023-03-04T08:43:12;101366.19;;;31.69;42.58
23223;BME280;11780;13.904;100.620;2023-03-04T08:45:43;101370.19;;;31.63;42.85
23223;BME280;11780;13.904;100.620;2023-03-04T08:48:13;101363.53;;;31.64;42.81
23223;BME280;11780;13.904;100.620;2023-03-04T08:50:45;101359.22;;;31.72;42.82
23223;BME280;11780;13.904;100.620;2023-03-04T08:53:16;101343.88;;;31.66;42.79
23223;BME280;11780;13.904;100.620;2023-03-04T08:56:06;101351.50;;;31.69;43.11
23223;BME280;11780;13.904;100.620;2023-03-04T08:58:36;101354.28;;;31.69;43.32
23223;BME280;11780;13.904;100.620;2023-03-04T09:01:08;101343.88;;;31.66;43.10
23223;BME280;11780;13.904;100.620;2023-03-04T09:03:39;101347.75;;;31.65;43.13
23223;BME280;11780;13.904;100.620;2023-03-04T09:06:13;101343.22;;;31.69;41.92
23223;BME280;11780;13.904;100.620;2023-03-04T09:08:44;101343.44;;;31.72;41.52
23223;BME280;11780;13.904;100.620;2023-03-04T09:11:15;101351.25;;;31.70;41.66
23223;BME280;11780;13.904;100.620;2023-03-04T09:13:46;101343.03;;;31.65;42.30
23223;BME280;11780;13.904;100.620;2023-03-04T09:16:16;101337.50;;;31.65;42.00
23223;BME280;11780;13.904;100.620;2023-03-04T09:18:47;101347.25;;;31.63;42.05
23223;BME280;11780;13.904;100.620;2023-03-04T09:21:17;101345.81;;;31.65;41.99
23223;BME280;11780;13.904;100.620;2023-03-04T09:23:46;101353.09;;;31.61;42.29
23223;BME280;11780;13.904;100.620;2023-03-04T09:26:28;101349.53;;;31.61;42.80
23223;BME280;11780;13.904;100.620;2023-03-04T09:28:58;101351.34;;;31.65;42.66
23223;BME280;11780;13.904;100.620;2023-03-04T09:31:29;101347.88;;;31.59;42.52
23223;BME280;11780;13.904;100.620;2023-03-04T09:34:00;101347.69;;;31.56;43.03
23223;BME280;11780;13.904;100.620;2023-03-04T09:36:31;101345.44;;;31.58;43.67
23223;BME280;11780;13.904;100.620;2023-03-04T09:39:02;101342.47;;;31.54;43.56
23223;BME280;11780;13.904;100.620;2023-03-04T09:41:38;101354.03;;;31.56;43.89
23223;BME280;11780;13.904;100.620;2023-03-04T09:44:33;101355.06;;;31.61;43.46
23223;BME280;11780;13.904;100.620;2023-03-04T09:47:19;101358.63;;;31.61;42.37
23223;BME280;11780;13.904;100.620;2023-03-04T09:49:55;101347.38;;;31.57;43.63
23223;BME280;11780;13.904;100.620;2023-03-04T09:55:38;101350.97;;;31.58;43.77
23223;BME280;11780;13.904;100.620;2023-03-04T09:58:27;101349.19;;;31.62;43.80
23223;BME280;11780;13.904;100.620;2023-03-04T10:03:45;101357.31;;;31.58;44.22
23223;BME280;11780;13.904;100.620;2023-03-04T10:06:20;101351.97;;;31.62;44.24
23223;BME280;11780;13.904;100.620;2023-03-04T10:09:03;101361.53;;;31.56;44.37
23223;BME280;11780;13.904;100.620;2023-03-04T10:11:47;101352.22;;;31.52;43.88
23223;BME280;11780;13.904;100.620;2023-03-04T10:19:40;101362.31;;;31.56;43.55
23223;BME280;11780;13.904;100.620;2023-03-04T10:22:30;101361.81;;;31.54;43.39
23223;BME280;11780;13.904;100.620;2023-03-04T10:27:55;101363.78;;;31.54;43.21
23223;BME280;11780;13.904;100.620;2023-03-04T10:33:22;101369.63;;;31.52;42.68
23223;BME280;11780;13.904;100.620;2023-03-04T10:36:08;101376.28;;;31.51;43.70
23223;BME280;11780;13.904;100.620;2023-03-04T10:38:41;101374.44;;;31.47;43.47
23223;BME280;11780;13.904;100.620;2023-03-04T10:41:17;101372.19;;;31.49;43.13
23223;BME280;11780;13.904;100.620;2023-03-04T10:46:42;101371.91;;;31.50;43.29
23223;BME280;11780;13.904;100.620;2023-03-04T10:49:31;101377.94;;;31.52;43.26
23223;BME280;11780;13.904;100.620;2023-03-04T10:52:21;101390.59;;;31.53;42.88
23223;BME280;11780;13.904;100.620;2023-03-04T10:54:54;101388.78;;;31.49;42.69
23223;BME280;11780;13.904;100.620;2023-03-04T11:00:01;101383.06;;;31.45;42.74
23223;BME280;11780;13.904;100.620;2023-03-04T11:02:33;101385.03;;;31.44;42.65
23223;BME280;11780;13.904;100.620;2023-03-04T11:05:15;101393.63;;;31.43;42.56
23223;BME280;11780;13.904;100.620;2023-03-04T11:07:52;101389.22;;;31.42;42.78
23223;BME280;11780;13.904;100.620;2023-03-04T11:16:02;101396.38;;;31.43;43.26
23223;BME280;11780;13.904;100.620;2023-03-04T11:18:53;101402.84;;;31.38;43.19
23223;BME280;11780;13.904;100.620;2023-03-04T11:21:29;101401.31;;;31.32;43.62
23223;BME280;11780;13.904;100.620;2023-03-04T11:24:03;101397.00;;;31.40;43.45
23223;BME280;11780;13.904;100.620;2023-03-04T11:26:52;101404.91;;;31.33;43.36
23223;BME280;11780;13.904;100.620;2023-03-04T11:34:50;101424.28;;;31.33;43.54
23223;BME280;11780;13.904;100.620;2023-03-04T11:37:42;101423.06;;;31.25;44.07
23223;BME280;11780;13.904;100.620;2023-03-04T11:43:38;101431.63;;;31.23;43.71
23223;BME280;11780;13.904;100.620;2023-03-04T12:00:32;101449.84;;;31.24;45.88
23223;BME280;11780;13.904;100.620;2023-03-04T12:11:29;101468.50;;;31.19;46.57
23223;BME280;11780;13.904;100.620;2023-03-04T12:15:14;101474.22;;;31.08;46.78
23223;BME280;11780;13.904;100.620;2023-03-04T12:25:42;101492.00;;;31.02;47.16
23223;BME280;11780;13.904;100.620;2023-03-04T12:28:21;101489.78;;;31.04;47.26
23223;BME280;11780;13.904;100.620;2023-03-04T12:39:31;101502.88;;;30.98;47.89
23223;BME280;11780;13.904;100.620;2023-03-04T12:45:17;101505.13;;;30.96;48.26
23223;BME280;11780;13.904;100.620;2023-03-04T12:55:47;101516.16;;;30.96;48.20
23223;BME280;11780;13.904;100.620;2023-03-04T12:58:23;101515.13;;;30.92;48.15
23223;BME280;11780;13.904;100.620;2023-03-04T13:03:34;101526.69;;;30.94;48.33
23223;BME280;11780;13.904;100.620;2023-03-04T13:11:38;101544.13;;;30.95;48.05
23223;BME280;11780;13.904;100.620;2023-03-04T13:19:47;101560.47;;;30.91;48.68
23223;BME280;11780;13.904;100.620;2023-03-04T13:25:34;101570.50;;;30.87;48.69
23223;BME280;11780;13.904;100.620;2023-03-04T13:31:24;101576.03;;;30.87;48.79
23223;BME280;11780;13.904;100.620;2023-03-04T13:36:06;101585.94;;;30.88;48.92
23223;BME280;11780;13.904;100.620;2023-03-04T13:41:46;101593.59;;;30.77;49.01
23223;BME280;11780;13.904;100.620;2023-03-04T13:44:54;101594.31;;;30.83;49.25
23223;BME280;11780;13.904;100.620;2023-03-04T13:47:42;101604.31;;;30.79;49.17
23223;BME280;11780;13.904;100.620;2023-03-04T13:50:29;101605.56;;;30.73;49.54
23223;BME280;11780;13.904;100.620;2023-03-04T13:56:20;101615.56;;;30.68;49.40
23223;BME280;11780;13.904;100.620;2023-03-04T14:06:55;101635.44;;;30.84;49.44
23223;BME280;11780;13.904;100.620;2023-03-04T14:09:32;101634.25;;;30.91;49.42
23223;BME280;11780;13.904;100.620;2023-03-04T14:12:14;101638.44;;;30.88;49.58
23223;BME280;11780;13.904;100.620;2023-03-04T14:14:56;101638.44;;;30.88;49.47
23223;BME280;11780;13.904;100.620;2023-03-04T14:17:30;101641.41;;;30.92;49.27
23223;BME280;11780;13.904;100.620;2023-03-04T14:20:01;101635.44;;;30.84;49.75
23223;BME280;11780;13.904;100.620;2023-03-04T14:22:42;101648.38;;;30.89;49.84
23223;BME280;11780;13.904;100.620;2023-03-04T14:25:31;101647.44;;;30.94;49.65
23223;BME280;11780;13.904;100.620;2023-03-04T14:28:19;101651.84;;;30.95;49.71
23223;BME280;11780;13.904;100.620;2023-03-04T14:30:56;101650.63;;;31.01;49.77
23223;BME280;11780;13.904;100.620;2023-03-04T14:34:01;101662.59;;;30.96;49.54
23223;BME280;11780;13.904;100.620;2023-03-04T14:36:33;101664.84;;;30.94;49.72
23223;BME280;11780;13.904;100.620;2023-03-04T14:39:06;101662.00;;;30.99;49.87
23223;BME280;11780;13.904;100.620;2023-03-04T14:41:39;101664.31;;;30.92;50.00
23223;BME280;11780;13.904;100.620;2023-03-04T14:46:51;101670.28;;;30.99;49.87
23223;BME280;11780;13.904;100.620;2023-03-04T14:49:37;101667.72;;;31.03;49.63
23223;BME280;11780;13.904;100.620;2023-03-04T14:57:34;101666.41;;;31.01;49.74
23223;BME280;11780;13.904;100.620;2023-03-04T15:00:25;101674.38;;;31.02;49.51
23223;BME280;11780;13.904;100.620;2023-03-04T15:02:59;101677.38;;;31.06;49.84
23223;BME280;11780;13.904;100.620;2023-03-04T15:05:32;101681.88;;;31.02;49.51
23223;BME280;11780;13.904;100.620;2023-03-04T15:08:26;101680.22;;;31.01;49.77
23223;BME280;11780;13.904;100.620;2023-03-04T15:11:24;101672.22;;;30.99;49.67
23223;BME280;11780;13.904;100.620;2023-03-04T15:13:57;101680.50;;;30.99;49.53
23223;BME280;11780;13.904;100.620;2023-03-04T15:16:52;101687.97;;;30.98;49.50
23223;BME280;11780;13.904;100.620;2023-03-04T15:19:28;101679.50;;;30.95;50.06
23223;BME280;11780;13.904;100.620;2023-03-04T15:22:05;101684.19;;;30.94;49.56
23223;BME280;11780;13.904;100.620;2023-03-04T15:24:37;101685.81;;;30.95;49.63
23223;BME280;11780;13.904;100.620;2023-03-04T15:27:13;101689.69;;;30.94;49.72
23223;BME280;11780;13.904;100.620;2023-03-04T15:29:56;101685.22;;;30.98;49.56
23223;BME280;11780;13.904;100.620;2023-03-04T15:32:28;101689.41;;;30.96;49.48
23223;BME280;11780;13.904;100.620;2023-03-04T15:35:01;101697.19;;;30.94;49.83
23223;BME280;11780;13.904;100.620;2023-03-04T15:37:32;101697.41;;;30.97;50.04
23223;BME280;11780;13.904;100.620;2023-03-04T15:40:06;101695.03;;;30.91;50.16
23223;BME280;11780;13.904;100.620;2023-03-04T15:42:41;101709.88;;;30.95;50.15
23223;BME280;11780;13.904;100.620;2023-03-04T15:45:28;101706.22;;;30.99;49.92
23223;BME280;11780;13.904;100.620;2023-03-04T15:48:07;101711.91;;;30.89;49.84
23223;BME280;11780;13.904;100.620;2023-03-04T15:53:27;101712.19;;;30.88;49.80
23223;BME280;11780;13.904;100.620;2023-03-04T15:59:14;101716.66;;;30.83;50.22
23223;BME280;11780;13.904;100.620;2023-03-04T16:01:45;101702.66;;;30.80;49.68
23223;BME280;11780;13.904;100.620;2023-03-04T16:04:16;101701.09;;;30.74;49.43
23223;BME280;11780;13.904;100.620;2023-03-04T16:06:47;101704.16;;;30.72;49.94
23223;BME280;11780;13.904;100.620;2023-03-04T16:09:19;101703.34;;;30.72;50.04
23223;BME280;11780;13.904;100.620;2023-03-04T16:11:50;101698.94;;;30.71;50.30
23223;BME280;11780;13.904;100.620;2023-03-04T16:14:26;101696.69;;;30.73;50.09
23223;BME280;11780;13.904;100.620;2023-03-04T16:17:00;101697.88;;;30.66;50.38
23223;BME280;11780;13.904;100.620;2023-03-04T16:19:32;101697.88;;;30.66;50.84
23223;BME280;11780;13.904;100.620;2023-03-04T16:22:03;101700.44;;;30.63;51.55
23223;BME280;11780;13.904;100.620;2023-03-04T16:24:34;101698.19;;;30.65;50.58
23223;BME280;11780;13.904;100.620;2023-03-04T16:27:14;101699.00;;;30.65;50.58
23223;BME280;11780;13.904;100.620;2023-03-04T16:29:47;101694.59;;;30.64;50.78
23223;BME280;11780;13.904;100.620;2023-03-04T16:32:20;101696.75;;;30.67;50.68
23223;BME280;11780;13.904;100.620;2023-03-04T16:34:50;101687.66;;;30.67;50.66
23223;BME280;11780;13.904;100.620;2023-03-04T16:37:23;101694.31;;;30.66;50.34
23223;BME280;11780;13.904;100.620;2023-03-04T16:39:55;101687.44;;;30.63;50.36
23223;BME280;11780;13.904;100.620;2023-03-04T16:42:25;101694.59;;;30.64;50.67
23223;BME280;11780;13.904;100.620;2023-03-04T16:45:01;101694.06;;;30.62;50.41
23223;BME280;11780;13.904;100.620;2023-03-04T16:47:33;101686.63;;;30.63;50.93
23223;BME280;11780;13.904;100.620;2023-03-04T16:50:04;101689.38;;;30.63;50.84
23223;BME280;11780;13.904;100.620;2023-03-04T16:52:35;101682.22;;;30.62;50.59
23223;BME280;11780;13.904;100.620;2023-03-04T16:55:08;101679.72;;;30.60;50.94
23223;BME280;11780;13.904;100.620;2023-03-04T16:57:39;101679.72;;;30.60;50.83
23223;BME280;11780;13.904;100.620;2023-03-04T17:00:10;101674.22;;;30.60;50.74
23223;BME280;11780;13.904;100.620;2023-03-04T17:02:40;101674.84;;;30.57;51.29
23223;BME280;11780;13.904;100.620;2023-03-04T17:05:19;101668.19;;;30.58;50.94